Time;durP1;ratioP1;P1;durP2;ratioP2;P2;SDS_P1;SDS_P2;PMS_P1;PMS_P2;Temp;Humidity;BMP_temperature;BMP_pressure;BME280_temperature;BME280_humidity;BME280_pressure;Samples;Min_cycle;Max_cycle;Signal;HPM_P1;HPM_P2
2023/09/20 00:02:31;;;;;;;13.80;10.13;;;;;;;;;;5177560;27;20028;-74
2023/09/20 00:05:18;;;;;;;12.82;10.10;;;;;;;;;;5178579;27;20018;-74
2023/09/20 00:08:04;;;;;;;17.95;11.00;;;;;;;;;;5178423;27;20427;-74
2023/09/20 00:10:50;;;;;;;16.55;10.07;;;;;;;;;;5177547;27;20033;-73
2023/09/20 00:13:36;;;;;;;14.38;10.40;;;;;;;;;;5178913;27;20046;-74
2023/09/20 00:16:22;;;;;;;15.02;10.10;;;;;;;;;;5164020;27;20110;-73
2023/09/20 00:19:08;;;;;;;15.43;10.05;;;;;;;;;;5163624;27;20019;-73
2023/09/20 00:21:54;;;;;;;16.98;10.55;;;;;;;;;;5163277;27;20408;-73
2023/09/20 00:24:39;;;;;;;18.92;10.57;;;;;;;;;;5178707;27;20078;-74
2023/09/20 00:27:25;;;;;;;16.63;10.80;;;;;;;;;;5177613;27;20022;-73
2023/09/20 00:30:15;;;;;;;13.77;10.32;;;;;;;;;;5162876;27;20029;-73
2023/09/20 00:33:01;;;;;;;14.50;10.18;;;;;;;;;;5164381;27;20018;-74
2023/09/20 00:35:47;;;;;;;14.77;10.32;;;;;;;;;;5178010;27;20340;-74
2023/09/20 00:38:34;;;;;;;17.65;11.70;;;;;;;;;;5177400;27;20101;-75
2023/09/20 00:41:21;;;;;;;19.00;11.45;;;;;;;;;;5177673;27;20082;-75
2023/09/20 00:44:06;;;;;;;15.93;11.80;;;;;;;;;;5162011;27;20022;-75
2023/09/20 00:46:52;;;;;;;17.23;12.32;;;;;;;;;;5177116;27;20446;-74
2023/09/20 00:49:38;;;;;;;22.85;13.80;;;;;;;;;;5176289;27;20077;-74
2023/09/20 00:52:24;;;;;;;21.23;13.48;;;;;;;;;;5162030;27;20333;-74
2023/09/20 00:55:15;;;;;;;18.92;13.65;;;;;;;;;;5176241;27;20018;-73
2023/09/20 00:58:07;;;;;;;21.40;13.07;;;;;;;;;;5162342;27;20073;-75
2023/09/20 01:00:55;;;;;;;17.60;12.70;;;;;;;;;;5176685;27;20018;-74
2023/09/20 01:03:40;;;;;;;22.15;12.38;;;;;;;;;;5176855;27;20014;-73
2023/09/20 01:06:26;;;;;;;17.02;11.75;;;;;;;;;;5177603;27;20093;-74
2023/09/20 01:09:13;;;;;;;15.43;10.80;;;;;;;;;;5177138;27;20329;-74
2023/09/20 01:11:59;;;;;;;17.10;10.57;;;;;;;;;;5162734;27;20030;-73
2023/09/20 01:14:45;;;;;;;16.10;11.38;;;;;;;;;;5161055;27;20110;-74
2023/09/20 01:17:31;;;;;;;15.00;11.05;;;;;;;;;;5176811;27;20015;-75
2023/09/20 01:20:19;;;;;;;12.18;9.75;;;;;;;;;;5176620;27;20459;-74
2023/09/20 01:23:04;;;;;;;16.10;10.15;;;;;;;;;;5177541;27;20097;-73
2023/09/20 01:25:51;;;;;;;19.77;11.23;;;;;;;;;;5176146;27;20029;-74
2023/09/20 01:28:37;;;;;;;16.38;10.48;;;;;;;;;;5175862;27;20018;-74
2023/09/20 01:31:22;;;;;;;15.82;10.85;;;;;;;;;;5161554;27;20037;-74
2023/09/20 01:34:09;;;;;;;12.68;10.32;;;;;;;;;;5175565;27;20054;-74
2023/09/20 01:36:54;;;;;;;17.55;10.93;;;;;;;;;;5176843;27;20109;-74
2023/09/20 01:39:40;;;;;;;17.80;11.13;;;;;;;;;;5175666;27;20032;-73
2023/09/20 01:42:26;;;;;;;14.00;10.63;;;;;;;;;;5176530;27;20014;-73
2023/09/20 01:45:16;;;;;;;17.65;11.88;;;;;;;;;;5175659;27;20025;-74
2023/09/20 01:48:06;;;;;;;20.85;12.10;;;;;;;;;;5176622;27;20033;-75
2023/09/20 01:50:52;;;;;;;19.05;12.52;;;;;;;;;;5176003;27;20077;-72
2023/09/20 01:53:38;;;;;;;15.40;11.48;;;;;;;;;;5176816;27;20026;-74
2023/09/20 01:56:25;;;;;;;15.82;11.55;;;;;;;;;;5162647;27;20026;-74
2023/09/20 01:59:10;;;;;;;18.48;11.50;;;;;;;;;;5180248;27;20086;-74
2023/09/20 02:01:57;;;;;;;15.20;11.52;;;;;;;;;;5180215;27;20014;-74
2023/09/20 02:04:42;;;;;;;18.45;11.85;;;;;;;;;;5180566;27;20174;-74
2023/09/20 02:07:28;;;;;;;21.65;11.98;;;;;;;;;;5180612;27;20355;-74
2023/09/20 02:10:14;;;;;;;15.73;12.02;;;;;;;;;;5180464;27;20105;-75
2023/09/20 02:13:00;;;;;;;15.25;11.65;;;;;;;;;;5165395;27;20109;-74
2023/09/20 02:15:47;;;;;;;16.58;11.77;;;;;;;;;;5180312;27;20049;-75
2023/09/20 02:18:32;;;;;;;17.08;11.20;;;;;;;;;;5180604;27;20022;-74
2023/09/20 02:21:18;;;;;;;15.10;11.60;;;;;;;;;;5180626;27;20019;-75
2023/09/20 02:24:05;;;;;;;16.15;10.95;;;;;;;;;;5165184;27;20070;-73
2023/09/20 02:26:50;;;;;;;15.15;11.13;;;;;;;;;;5165208;27;20436;-73
2023/09/20 02:29:36;;;;;;;16.30;11.18;;;;;;;;;;5178888;27;20116;-73
2023/09/20 02:32:23;;;;;;;16.80;10.38;;;;;;;;;;5164695;27;20035;-73
2023/09/20 02:35:09;;;;;;;13.32;10.30;;;;;;;;;;5164798;27;20130;-74
2023/09/20 02:37:56;;;;;;;15.95;11.05;;;;;;;;;;5179913;27;20089;-73
2023/09/20 02:40:45;;;;;;;13.82;10.70;;;;;;;;;;5164246;27;20018;-74
2023/09/20 02:43:31;;;;;;;14.57;10.90;;;;;;;;;;5179937;27;20097;-74
2023/09/20 02:46:18;;;;;;;12.70;10.23;;;;;;;;;;5179513;27;20023;-74
2023/09/20 02:49:04;;;;;;;15.80;11.27;;;;;;;;;;5179366;27;20324;-73
2023/09/20 02:51:49;;;;;;;15.77;10.80;;;;;;;;;;5179743;27;20406;-73
2023/09/20 02:54:35;;;;;;;15.40;11.00;;;;;;;;;;5179120;27;20041;-75
2023/09/20 02:57:21;;;;;;;15.40;11.45;;;;;;;;;;5179516;27;20094;-74
2023/09/20 03:00:14;;;;;;;13.45;10.50;;;;;;;;;;5179675;27;20113;-74
2023/09/20 03:03:01;;;;;;;16.98;10.85;;;;;;;;;;5179190;27;20006;-74
2023/09/20 03:05:46;;;;;;;14.65;10.52;;;;;;;;;;5179212;27;20010;-74
2023/09/20 03:08:34;;;;;;;15.18;10.52;;;;;;;;;;5179018;27;20036;-74
2023/09/20 03:11:25;;;;;;;14.70;10.73;;;;;;;;;;5179599;27;20026;-74
2023/09/20 03:14:13;;;;;;;13.48;10.35;;;;;;;;;;5164446;27;20014;-74
2023/09/20 03:17:00;;;;;;;16.88;10.82;;;;;;;;;;5181048;27;20025;-74
2023/09/20 03:19:52;;;;;;;17.30;10.23;;;;;;;;;;5164551;27;20049;-74
2023/09/20 03:22:38;;;;;;;20.02;11.02;;;;;;;;;;5183472;27;20018;-74
2023/09/20 03:25:24;;;;;;;15.10;10.40;;;;;;;;;;5180608;27;20462;-74
2023/09/20 03:28:10;;;;;;;15.20;10.48;;;;;;;;;;5178611;27;20023;-74
2023/09/20 03:30:56;;;;;;;13.05;9.65;;;;;;;;;;5164546;27;20042;-74
2023/09/20 03:33:42;;;;;;;17.13;10.95;;;;;;;;;;5178193;27;20030;-75
2023/09/20 03:36:27;;;;;;;18.83;10.27;;;;;;;;;;5178429;27;20090;-74
2023/09/20 03:39:14;;;;;;;16.83;10.85;;;;;;;;;;5163848;27;20018;-74
2023/09/20 03:41:59;;;;;;;22.45;10.43;;;;;;;;;;5178162;27;20097;-75
2023/09/20 03:44:45;;;;;;;16.90;10.73;;;;;;;;;;5163577;27;20063;-75
2023/09/20 03:47:31;;;;;;;12.13;9.73;;;;;;;;;;5163229;27;20041;-73
2023/09/20 03:50:19;;;;;;;13.05;10.13;;;;;;;;;;5177265;27;20046;-72
2023/09/20 03:53:04;;;;;;;16.33;10.02;;;;;;;;;;5178079;27;20062;-72
2023/09/20 03:55:50;;;;;;;16.63;10.30;;;;;;;;;;5178215;27;20026;-71
2023/09/20 03:58:36;;;;;;;14.77;10.65;;;;;;;;;;5178655;27;20015;-72
2023/09/20 04:01:22;;;;;;;18.27;10.68;;;;;;;;;;5177877;27;20030;-72
2023/09/20 04:04:08;;;;;;;17.63;10.55;;;;;;;;;;5177632;27;20023;-72
2023/09/20 04:06:54;;;;;;;13.93;10.30;;;;;;;;;;5178028;27;20030;-72
2023/09/20 04:09:39;;;;;;;23.00;11.80;;;;;;;;;;5164196;27;20050;-72
2023/09/20 04:12:25;;;;;;;13.73;10.77;;;;;;;;;;5179482;27;20022;-73
2023/09/20 04:15:11;;;;;;;19.45;11.52;;;;;;;;;;5178005;27;20023;-72
2023/09/20 04:17:57;;;;;;;19.98;11.15;;;;;;;;;;5179117;27;20014;-72
2023/09/20 04:20:45;;;;;;;14.45;10.40;;;;;;;;;;5177164;27;20037;-72
2023/09/20 04:23:32;;;;;;;16.80;10.98;;;;;;;;;;5163653;27;20014;-71
2023/09/20 04:26:17;;;;;;;15.70;10.82;;;;;;;;;;5178840;27;20029;-72
2023/09/20 04:29:03;;;;;;;14.70;10.35;;;;;;;;;;5177423;27;20066;-72
2023/09/20 04:31:49;;;;;;;16.75;10.27;;;;;;;;;;5178025;27;20094;-71
2023/09/20 04:34:35;;;;;;;18.35;10.55;;;;;;;;;;5177141;27;20030;-72
2023/09/20 04:37:22;;;;;;;14.82;9.88;;;;;;;;;;5176747;27;20023;-73
2023/09/20 04:40:09;;;;;;;18.70;10.80;;;;;;;;;;5177285;27;20499;-72
2023/09/20 04:42:54;;;;;;;15.40;9.88;;;;;;;;;;5177358;27;20109;-73
2023/09/20 04:45:40;;;;;;;18.55;10.10;;;;;;;;;;5177431;27;20096;-74
2023/09/20 04:48:27;;;;;;;17.23;11.20;;;;;;;;;;5176540;27;20019;-72
2023/09/20 04:51:13;;;;;;;16.27;10.57;;;;;;;;;;5162263;27;20042;-72
2023/09/20 04:53:59;;;;;;;13.95;10.30;;;;;;;;;;5176459;27;20022;-72
2023/09/20 04:56:47;;;;;;;16.95;10.45;;;;;;;;;;5177252;27;20059;-73
2023/09/20 04:59:33;;;;;;;14.63;9.82;;;;;;;;;;5177033;27;20463;-73
2023/09/20 05:02:18;;;;;;;16.85;10.48;;;;;;;;;;5176469;27;20351;-72
2023/09/20 05:05:05;;;;;;;22.58;11.50;;;;;;;;;;5176859;27;20010;-72
2023/09/20 05:07:51;;;;;;;16.45;10.65;;;;;;;;;;5177410;27;20022;-72
2023/09/20 05:10:37;;;;;;;19.40;9.93;;;;;;;;;;5177458;27;20030;-73
2023/09/20 05:13:23;;;;;;;15.90;10.50;;;;;;;;;;5175870;27;20400;-72
2023/09/20 05:16:08;;;;;;;15.27;10.00;;;;;;;;;;5175593;27;20435;-71
2023/09/20 05:18:54;;;;;;;16.35;11.30;;;;;;;;;;5177919;27;20424;-73
2023/09/20 05:21:40;;;;;;;17.85;10.82;;;;;;;;;;5176387;27;20447;-71
2023/09/20 05:24:25;;;;;;;16.17;11.00;;;;;;;;;;5162204;27;20019;-70
2023/09/20 05:27:11;;;;;;;20.30;9.63;;;;;;;;;;5177454;27;20015;-71
2023/09/20 05:29:57;;;;;;;16.13;9.90;;;;;;;;;;5176279;27;20022;-71
2023/09/20 05:32:43;;;;;;;15.27;8.85;;;;;;;;;;5161578;27;20018;-74
2023/09/20 05:35:29;;;;;;;12.98;8.90;;;;;;;;;;5176160;27;20022;-72
2023/09/20 05:38:17;;;;;;;15.90;9.60;;;;;;;;;;5175788;27;20192;-71
2023/09/20 05:41:03;;;;;;;16.33;8.68;;;;;;;;;;5176596;27;20033;-73
2023/09/20 05:43:51;;;;;;;14.82;8.48;;;;;;;;;;5175608;27;20110;-73
2023/09/20 05:46:37;;;;;;;16.35;9.32;;;;;;;;;;5176642;27;20025;-71
2023/09/20 05:49:23;;;;;;;16.83;9.52;;;;;;;;;;5175561;27;20113;-73
2023/09/20 05:52:09;;;;;;;17.05;9.35;;;;;;;;;;5161279;27;20046;-73
2023/09/20 05:54:55;;;;;;;17.80;9.32;;;;;;;;;;5160866;27;20121;-70
2023/09/20 05:57:42;;;;;;;15.52;9.45;;;;;;;;;;5175636;27;20030;-72
2023/09/20 06:00:29;;;;;;;17.40;9.45;;;;;;;;;;5175394;27;20082;-73
2023/09/20 06:03:16;;;;;;;20.23;10.05;;;;;;;;;;5160713;27;20093;-73
2023/09/20 06:06:04;;;;;;;15.80;9.93;;;;;;;;;;5176325;27;20110;-73
2023/09/20 06:08:49;;;;;;;19.63;10.18;;;;;;;;;;5175697;27;20046;-73
2023/09/20 06:11:35;;;;;;;17.08;9.63;;;;;;;;;;5176287;27;20030;-72
2023/09/20 06:14:22;;;;;;;14.73;9.70;;;;;;;;;;5176413;27;20026;-73
2023/09/20 06:17:08;;;;;;;15.20;9.25;;;;;;;;;;5176354;27;20018;-73
2023/09/20 06:19:56;;;;;;;14.13;9.63;;;;;;;;;;5176149;27;20018;-73
2023/09/20 06:22:42;;;;;;;14.68;9.30;;;;;;;;;;5177240;27;20040;-73
2023/09/20 06:25:29;;;;;;;14.40;9.43;;;;;;;;;;5175129;27;20014;-73
2023/09/20 06:28:15;;;;;;;16.40;9.27;;;;;;;;;;5179862;27;20359;-74
2023/09/20 06:31:01;;;;;;;14.68;9.40;;;;;;;;;;5167298;27;20455;-74
2023/09/20 06:33:49;;;;;;;17.40;9.88;;;;;;;;;;5176640;27;20074;-73
2023/09/20 06:36:35;;;;;;;20.25;9.73;;;;;;;;;;5176331;27;20027;-73
2023/09/20 06:39:20;;;;;;;16.83;9.68;;;;;;;;;;5176046;27;20011;-75
2023/09/20 06:42:07;;;;;;;18.63;10.13;;;;;;;;;;5176211;27;20014;-73
2023/09/20 06:44:55;;;;;;;17.95;9.55;;;;;;;;;;5180134;27;20097;-73
2023/09/20 06:47:41;;;;;;;13.40;9.48;;;;;;;;;;5179858;27;20325;-73
2023/09/20 06:50:26;;;;;;;17.48;10.10;;;;;;;;;;5163096;27;20046;-72
2023/09/20 06:53:12;;;;;;;16.27;8.90;;;;;;;;;;5179290;27;20026;-73
2023/09/20 06:55:59;;;;;;;14.27;8.93;;;;;;;;;;5179205;27;20350;-72
2023/09/20 06:58:45;;;;;;;13.57;9.48;;;;;;;;;;5179094;27;20483;-72
2023/09/20 07:01:32;;;;;;;18.08;10.20;;;;;;;;;;5179800;27;20018;-73
2023/09/20 07:04:18;;;;;;;18.17;9.05;;;;;;;;;;5179086;27;20098;-73
2023/09/20 07:07:05;;;;;;;14.00;8.95;;;;;;;;;;5179203;27;20026;-72
2023/09/20 07:09:50;;;;;;;10.18;8.43;;;;;;;;;;5181855;27;20022;-73
2023/09/20 07:12:38;;;;;;;11.57;8.68;;;;;;;;;;5163533;27;20025;-73
2023/09/20 07:15:28;;;;;;;12.93;8.45;;;;;;;;;;5178831;27;20074;-72
2023/09/20 07:18:14;;;;;;;11.55;9.38;;;;;;;;;;5177631;27;20022;-73
2023/09/20 07:20:59;;;;;;;12.48;9.27;;;;;;;;;;5179081;27;20520;-73
2023/09/20 07:23:45;;;;;;;14.70;8.70;;;;;;;;;;5178083;27;20036;-72
2023/09/20 07:26:32;;;;;;;15.13;8.73;;;;;;;;;;5177876;27;20057;-73
2023/09/20 07:29:18;;;;;;;12.10;8.68;;;;;;;;;;5164291;27;20093;-74
2023/09/20 07:32:04;;;;;;;11.75;8.48;;;;;;;;;;5179126;27;20066;-74
2023/09/20 07:34:57;;;;;;;11.77;8.10;;;;;;;;;;5163432;27;20368;-73
2023/09/20 07:37:44;;;;;;;11.52;8.10;;;;;;;;;;5178332;27;20019;-75
2023/09/20 07:40:30;;;;;;;11.20;8.40;;;;;;;;;;5177708;27;20018;-73
2023/09/20 07:43:18;;;;;;;12.05;8.80;;;;;;;;;;5178633;27;20026;-73
2023/09/20 07:46:06;;;;;;;12.95;8.50;;;;;;;;;;5163169;27;20015;-74
2023/09/20 07:48:52;;;;;;;19.23;8.50;;;;;;;;;;5178156;27;20047;-74
2023/09/20 07:51:39;;;;;;;16.73;8.20;;;;;;;;;;5177689;27;20056;-73
2023/09/20 07:54:24;;;;;;;12.00;7.82;;;;;;;;;;5176960;27;20097;-73
2023/09/20 07:57:10;;;;;;;14.57;7.97;;;;;;;;;;5179797;27;20033;-73
2023/09/20 07:59:59;;;;;;;16.38;8.88;;;;;;;;;;5177747;27;20018;-72
2023/09/20 08:02:46;;;;;;;10.23;8.02;;;;;;;;;;5182360;27;20066;-73
2023/09/20 08:05:33;;;;;;;9.25;7.40;;;;;;;;;;5178475;27;20104;-73
2023/09/20 08:08:18;;;;;;;12.52;7.80;;;;;;;;;;5177026;27;20097;-73
2023/09/20 08:11:04;;;;;;;11.43;8.95;;;;;;;;;;5176148;27;20062;-73
2023/09/20 08:13:50;;;;;;;10.93;7.75;;;;;;;;;;5177527;27;20045;-73
2023/09/20 08:16:37;;;;;;;13.88;8.75;;;;;;;;;;5162656;27;20113;-73
2023/09/20 08:19:23;;;;;;;17.13;8.38;;;;;;;;;;5177243;27;20037;-73
2023/09/20 08:22:14;;;;;;;12.68;8.30;;;;;;;;;;5179365;27;20404;-73
2023/09/20 09:01:53;;;;;;;12.10;8.35;;;;;;;;;;5177237;27;20037;-72
2023/09/20 09:04:39;;;;;;;11.30;7.10;;;;;;;;;;5161644;27;20010;-74
2023/09/20 09:07:25;;;;;;;13.00;8.20;;;;;;;;;;5162449;27;20046;-73
2023/09/20 09:10:13;;;;;;;11.75;8.40;;;;;;;;;;5176482;27;20037;-74
2023/09/20 09:12:59;;;;;;;16.95;8.85;;;;;;;;;;5160657;27;20082;-73
2023/09/20 09:15:45;;;;;;;13.55;8.30;;;;;;;;;;5177318;27;20105;-73
2023/09/20 09:18:31;;;;;;;10.63;7.75;;;;;;;;;;5177048;27;20101;-74
2023/09/20 09:21:18;;;;;;;14.80;8.10;;;;;;;;;;5177018;27;20014;-73
2023/09/20 09:24:03;;;;;;;14.48;8.57;;;;;;;;;;5177711;27;20018;-75
2023/09/20 09:26:49;;;;;;;13.32;8.18;;;;;;;;;;5163029;27;20086;-72
2023/09/20 09:29:35;;;;;;;11.90;8.52;;;;;;;;;;5179157;27;20046;-73
2023/09/20 09:32:22;;;;;;;17.60;9.38;;;;;;;;;;5181764;27;20038;-75
2023/09/20 09:35:08;;;;;;;12.07;8.55;;;;;;;;;;5179171;27;20097;-73
2023/09/20 09:37:54;;;;;;;14.52;8.20;;;;;;;;;;5176678;27;20018;-72
2023/09/20 09:40:56;;;;;;;15.35;8.35;;;;;;;;;;5175890;27;20045;-73
2023/09/20 09:43:41;;;;;;;17.02;8.90;;;;;;;;;;5176644;27;20022;-74
2023/09/20 09:46:28;;;;;;;15.75;9.18;;;;;;;;;;5161337;27;20105;-74
2023/09/20 09:49:18;;;;;;;12.93;9.10;;;;;;;;;;5175857;27;20049;-74
2023/09/20 09:52:04;;;;;;;13.85;8.93;;;;;;;;;;5176283;27;20464;-74
2023/09/20 09:54:53;;;;;;;19.35;9.48;;;;;;;;;;5175540;27;20448;-73
2023/09/20 09:57:39;;;;;;;14.45;11.38;;;;;;;;;;5175527;27;20069;-74
2023/09/20 10:00:26;;;;;;;16.45;9.35;;;;;;;;;;5175185;27;20442;-74
2023/09/20 10:03:29;;;;;;;13.70;9.63;;;;;;;;;;5175466;27;20054;-73
2023/09/20 10:06:25;;;;;;;19.00;8.93;;;;;;;;;;5174932;27;20409;-73
2023/09/20 10:09:11;;;;;;;13.73;7.82;;;;;;;;;;5176069;27;20014;-73
2023/09/20 10:11:57;;;;;;;14.38;8.52;;;;;;;;;;5175426;27;20033;-74
2023/09/20 10:14:43;;;;;;;12.88;7.43;;;;;;;;;;5176046;27;20034;-73
2023/09/20 10:17:30;;;;;;;13.82;8.57;;;;;;;;;;5178519;27;20100;-73
2023/09/20 10:20:16;;;;;;;16.58;8.30;;;;;;;;;;5179423;27;20026;-73
2023/09/20 10:23:04;;;;;;;13.80;7.78;;;;;;;;;;5180326;27;20432;-74
2023/09/20 10:25:49;;;;;;;14.40;7.43;;;;;;;;;;5180268;27;20018;-73
2023/09/20 10:28:37;;;;;;;11.80;8.05;;;;;;;;;;5179969;27;20097;-75
2023/09/20 10:31:23;;;;;;;14.23;8.00;;;;;;;;;;5179565;27;20025;-74
2023/09/20 10:34:08;;;;;;;15.40;8.07;;;;;;;;;;5179224;27;20121;-74
2023/09/20 10:36:54;;;;;;;13.95;7.53;;;;;;;;;;5181117;27;20034;-74
2023/09/20 10:39:42;;;;;;;12.93;7.53;;;;;;;;;;5163951;27;20458;-73
2023/09/20 10:42:28;;;;;;;9.80;6.72;;;;;;;;;;5181969;27;20022;-73
2023/09/20 10:45:15;;;;;;;9.63;6.50;;;;;;;;;;5179691;27;20414;-73
2023/09/20 10:48:05;;;;;;;15.50;6.65;;;;;;;;;;5180856;27;20010;-73
2023/09/20 10:51:04;;;;;;;12.77;7.00;;;;;;;;;;5179330;27;20141;-73
2023/09/20 10:53:55;;;;;;;10.98;6.63;;;;;;;;;;5181513;27;20125;-73
2023/09/20 10:56:50;;;;;;;15.90;7.03;;;;;;;;;;5182664;27;20018;-73
2023/09/20 10:59:37;;;;;;;10.30;6.63;;;;;;;;;;5167939;27;20026;-73
2023/09/20 11:02:24;;;;;;;9.15;5.78;;;;;;;;;;5179975;27;20029;-74
2023/09/20 11:05:11;;;;;;;11.90;6.05;;;;;;;;;;5165023;27;20045;-74
2023/09/20 11:08:03;;;;;;;9.63;5.93;;;;;;;;;;5180106;27;20018;-73
2023/09/20 11:10:48;;;;;;;7.30;5.80;;;;;;;;;;5180122;27;20030;-74
2023/09/20 11:13:34;;;;;;;9.05;6.18;;;;;;;;;;5178418;27;20079;-74
2023/09/20 11:16:21;;;;;;;8.75;5.70;;;;;;;;;;5163565;27;20018;-74
2023/09/20 11:19:07;;;;;;;9.57;6.57;;;;;;;;;;5178981;27;20018;-73
2023/09/20 11:21:54;;;;;;;11.30;5.82;;;;;;;;;;5179379;27;20029;-74
2023/09/20 11:24:41;;;;;;;9.75;6.55;;;;;;;;;;5164247;27;20034;-73
2023/09/20 11:27:27;;;;;;;7.78;5.93;;;;;;;;;;5177876;27;20029;-73
2023/09/20 11:30:13;;;;;;;8.57;5.32;;;;;;;;;;5177952;27;20030;-74
2023/09/20 11:32:59;;;;;;;11.50;6.43;;;;;;;;;;5164072;27;20105;-73
2023/09/20 11:35:46;;;;;;;9.50;6.18;;;;;;;;;;5178256;27;20454;-73
2023/09/20 11:38:32;;;;;;;9.45;6.60;;;;;;;;;;5177797;27;20022;-74
2023/09/20 11:41:18;;;;;;;24.25;9.30;;;;;;;;;;5177578;27;20018;-74
2023/09/20 11:44:05;;;;;;;11.63;7.20;;;;;;;;;;5177578;27;20052;-74
2023/09/20 11:46:53;;;;;;;10.68;7.60;;;;;;;;;;5177491;27;20014;-73
2023/09/20 11:49:38;;;;;;;12.38;8.02;;;;;;;;;;5177327;27;20049;-73
2023/09/20 11:52:24;;;;;;;11.85;6.90;;;;;;;;;;5162420;27;20079;-73
2023/09/20 11:55:16;;;;;;;8.82;6.57;;;;;;;;;;5178883;27;20032;-74
2023/09/20 11:58:02;;;;;;;13.20;7.18;;;;;;;;;;5159445;27;20416;-79
2023/09/20 12:00:49;;;;;;;10.27;6.38;;;;;;;;;;5165018;27;20086;-70
2023/09/20 12:03:34;;;;;;;9.65;5.45;;;;;;;;;;5176932;27;20465;-71
2023/09/20 12:06:21;;;;;;;13.13;6.88;;;;;;;;;;5176710;27;20030;-76
2023/09/20 12:09:07;;;;;;;15.95;7.15;;;;;;;;;;5177078;27;20444;-77
2023/09/20 12:11:52;;;;;;;9.77;6.88;;;;;;;;;;5177726;27;20440;-77
2023/09/20 12:14:38;;;;;;;12.13;6.90;;;;;;;;;;5177381;27;20018;-77
2023/09/20 12:17:24;;;;;;;17.23;6.82;;;;;;;;;;5178078;27;20056;-77
2023/09/20 12:20:12;;;;;;;14.75;6.88;;;;;;;;;;5178839;27;20010;-76
2023/09/20 12:23:01;;;;;;;14.45;7.30;;;;;;;;;;5166933;27;20431;-76
2023/09/20 12:25:46;;;;;;;12.13;6.57;;;;;;;;;;5180624;27;20018;-77
2023/09/20 12:28:32;;;;;;;12.65;7.68;;;;;;;;;;5178313;27;20018;-77
2023/09/20 12:31:23;;;;;;;14.15;7.03;;;;;;;;;;5183078;27;20078;-77
2023/09/20 12:34:09;;;;;;;15.82;7.10;;;;;;;;;;5164960;27;20010;-77
2023/09/20 12:36:56;;;;;;;11.45;6.57;;;;;;;;;;5179857;27;20085;-77
2023/09/20 12:39:42;;;;;;;11.38;7.13;;;;;;;;;;5156161;27;20034;-79
2023/09/20 12:42:33;;;;;;;11.73;6.20;;;;;;;;;;5156007;27;20015;-78
2023/09/20 12:45:19;;;;;;;12.50;6.90;;;;;;;;;;5155969;27;20014;-79
2023/09/20 12:48:05;;;;;;;11.25;6.30;;;;;;;;;;5155871;27;20026;-80
2023/09/20 12:50:51;;;;;;;11.52;6.00;;;;;;;;;;5156084;27;20046;-79
2023/09/20 12:53:37;;;;;;;10.48;5.57;;;;;;;;;;5157638;27;20023;-77
2023/09/20 12:56:22;;;;;;;10.48;6.43;;;;;;;;;;5160010;27;20083;-79
2023/09/20 12:59:08;;;;;;;7.70;5.95;;;;;;;;;;5155674;27;20397;-79
2023/09/20 13:01:54;;;;;;;11.57;5.80;;;;;;;;;;5142311;27;20450;-79
2023/09/20 13:04:41;;;;;;;12.45;6.00;;;;;;;;;;5155824;27;20466;-79
2023/09/20 13:07:26;;;;;;;12.07;6.22;;;;;;;;;;5140603;27;20015;-77
2023/09/20 13:10:13;;;;;;;10.45;5.80;;;;;;;;;;5161848;27;20113;-77
2023/09/20 13:13:02;;;;;;;10.95;6.07;;;;;;;;;;5176674;27;20018;-76
2023/09/20 13:15:48;;;;;;;14.43;6.22;;;;;;;;;;5176134;27;20101;-76
2023/09/20 13:18:34;;;;;;;12.68;6.18;;;;;;;;;;5176537;27;20102;-76
2023/09/20 13:21:20;;;;;;;11.32;5.72;;;;;;;;;;5176375;27;20109;-75
2023/09/20 13:24:08;;;;;;;8.10;5.50;;;;;;;;;;5162290;27;20018;-74
2023/09/20 13:26:54;;;;;;;8.45;5.40;;;;;;;;;;5161936;27;20049;-76
2023/09/20 13:29:40;;;;;;;12.65;5.72;;;;;;;;;;5176257;27;20411;-76
2023/09/20 13:32:26;;;;;;;13.82;6.05;;;;;;;;;;5177381;27;20022;-76
2023/09/20 13:35:12;;;;;;;15.00;5.85;;;;;;;;;;5175900;27;20028;-76
2023/09/20 13:37:58;;;;;;;10.80;5.80;;;;;;;;;;5177038;27;20060;-76
2023/09/20 13:40:44;;;;;;;13.88;5.93;;;;;;;;;;5177454;27;20174;-75
2023/09/20 13:43:30;;;;;;;11.80;5.43;;;;;;;;;;5161244;27;20018;-75
2023/09/20 13:46:16;;;;;;;9.23;5.40;;;;;;;;;;5178731;27;20110;-75
2023/09/20 13:49:02;;;;;;;9.02;5.45;;;;;;;;;;5178361;27;20014;-74
2023/09/20 13:51:48;;;;;;;9.27;5.43;;;;;;;;;;5178788;27;20022;-75
2023/09/20 13:54:34;;;;;;;8.73;5.43;;;;;;;;;;5178719;27;20026;-74
2023/09/20 13:57:20;;;;;;;8.80;5.32;;;;;;;;;;5178026;27;20503;-74
2023/09/20 14:00:15;;;;;;;13.48;5.03;;;;;;;;;;5161260;27;20401;-74
2023/09/20 14:03:02;;;;;;;9.77;4.80;;;;;;;;;;5163540;27;20047;-75
2023/09/20 14:05:47;;;;;;;13.10;5.68;;;;;;;;;;5176914;27;20447;-74
2023/09/20 14:08:33;;;;;;;11.48;5.28;;;;;;;;;;5176777;27;20026;-73
2023/09/20 14:11:20;;;;;;;8.10;4.88;;;;;;;;;;5175755;27;20101;-73
2023/09/20 14:14:06;;;;;;;9.27;4.80;;;;;;;;;;5176616;27;20014;-73
2023/09/20 14:16:52;;;;;;;11.55;4.97;;;;;;;;;;5161188;27;20040;-74
2023/09/20 14:19:38;;;;;;;9.95;5.00;;;;;;;;;;5175967;27;20154;-75
2023/09/20 14:22:25;;;;;;;10.25;5.60;;;;;;;;;;5176020;27;20083;-75
2023/09/20 14:25:11;;;;;;;11.18;5.50;;;;;;;;;;5175380;27;20019;-74
2023/09/20 14:27:57;;;;;;;6.60;4.95;;;;;;;;;;5161593;27;20352;-73
2023/09/20 14:30:43;;;;;;;8.15;5.13;;;;;;;;;;5174820;27;20032;-74
2023/09/20 14:33:29;;;;;;;8.32;4.50;;;;;;;;;;5174864;27;20033;-74
2023/09/20 14:36:14;;;;;;;16.85;5.18;;;;;;;;;;5174827;27;20022;-74
2023/09/20 14:39:00;;;;;;;10.38;5.20;;;;;;;;;;5174842;27;20102;-74
2023/09/20 14:41:46;;;;;;;9.57;5.00;;;;;;;;;;5175196;27;20412;-73
2023/09/20 14:44:32;;;;;;;10.52;4.72;;;;;;;;;;5174743;27;20022;-73
2023/09/20 14:47:18;;;;;;;9.57;4.70;;;;;;;;;;5175160;27;20079;-72
2023/09/20 14:50:04;;;;;;;7.20;4.93;;;;;;;;;;5174793;27;20046;-73
2023/09/20 14:52:50;;;;;;;9.15;4.63;;;;;;;;;;5161011;27;20055;-74
2023/09/20 14:55:35;;;;;;;6.78;4.55;;;;;;;;;;5175297;27;20109;-74
2023/09/20 14:58:22;;;;;;;13.15;5.05;;;;;;;;;;5175349;27;20045;-73
2023/09/20 15:01:11;;;;;;;9.07;5.00;;;;;;;;;;5175704;27;20065;-74
2023/09/20 15:03:57;;;;;;;12.80;5.15;;;;;;;;;;5176019;27;20033;-73
2023/09/20 15:06:43;;;;;;;7.72;4.82;;;;;;;;;;5163373;27;20113;-72
2023/09/20 15:09:29;;;;;;;8.98;5.07;;;;;;;;;;5178192;27;20014;-74
2023/09/20 15:12:16;;;;;;;8.90;5.07;;;;;;;;;;5183046;27;20015;-73
2023/09/20 15:15:02;;;;;;;15.55;5.18;;;;;;;;;;5165529;27;20029;-74
2023/09/20 15:17:48;;;;;;;8.80;4.43;;;;;;;;;;5164861;27;20419;-74
2023/09/20 15:20:34;;;;;;;11.80;4.55;;;;;;;;;;5184046;27;20471;-74
2023/09/20 15:23:19;;;;;;;9.60;4.15;;;;;;;;;;5164224;27;20030;-74
2023/09/20 15:26:09;;;;;;;8.00;5.45;;;;;;;;;;5164974;27;20344;-73
2023/09/20 15:28:55;;;;;;;13.57;4.95;;;;;;;;;;5163553;27;20018;-74
2023/09/20 15:31:40;;;;;;;9.02;4.93;;;;;;;;;;5181219;27;20014;-74
2023/09/20 15:34:26;;;;;;;13.50;4.80;;;;;;;;;;5182562;27;20097;-75
2023/09/20 15:37:14;;;;;;;13.02;4.97;;;;;;;;;;5184406;27;20022;-72
2023/09/20 15:40:03;;;;;;;12.75;5.22;;;;;;;;;;5163609;27;20101;-72
2023/09/20 15:42:49;;;;;;;10.65;4.90;;;;;;;;;;5180295;27;20447;-72
2023/09/20 15:45:35;;;;;;;12.52;4.97;;;;;;;;;;5167147;27;20032;-74
2023/09/20 15:48:20;;;;;;;12.68;4.50;;;;;;;;;;5178263;27;20021;-72
2023/09/20 15:51:06;;;;;;;16.75;5.30;;;;;;;;;;5178179;27;20363;-73
2023/09/20 15:53:57;;;;;;;12.23;5.05;;;;;;;;;;5178078;27;20029;-74
2023/09/20 15:56:43;;;;;;;11.23;4.32;;;;;;;;;;5185474;27;20014;-73
2023/09/20 15:59:29;;;;;;;9.45;4.88;;;;;;;;;;5179415;27;20099;-73
2023/09/20 16:02:15;;;;;;;9.38;4.45;;;;;;;;;;5178484;27;20050;-73
2023/09/20 16:05:00;;;;;;;11.05;4.65;;;;;;;;;;5178541;27;20014;-74
2023/09/20 16:07:46;;;;;;;12.38;4.85;;;;;;;;;;5178766;27;20025;-74
2023/09/20 16:10:32;;;;;;;14.93;5.50;;;;;;;;;;5178214;27;20022;-73
2023/09/20 16:13:17;;;;;;;11.63;4.68;;;;;;;;;;5179865;27;20025;-73
2023/09/20 16:16:04;;;;;;;11.95;4.72;;;;;;;;;;5190126;27;20050;-73
2023/09/20 16:18:51;;;;;;;12.32;4.47;;;;;;;;;;5172992;27;20022;-72
2023/09/20 16:21:36;;;;;;;12.52;4.50;;;;;;;;;;5189804;27;20026;-73
2023/09/20 16:24:22;;;;;;;10.48;4.60;;;;;;;;;;5173016;27;20018;-73
2023/09/20 16:27:08;;;;;;;8.55;4.75;;;;;;;;;;5179990;27;20018;-73
2023/09/20 16:29:53;;;;;;;9.35;4.65;;;;;;;;;;5190210;27;20026;-73
2023/09/20 16:32:39;;;;;;;8.70;4.90;;;;;;;;;;5192936;27;20014;-74
2023/09/20 16:35:26;;;;;;;8.63;4.80;;;;;;;;;;5193144;27;20014;-72
2023/09/20 16:38:14;;;;;;;13.18;7.68;;;;;;;;;;5193633;27;20056;-74
2023/09/20 16:40:59;;;;;;;15.95;8.13;;;;;;;;;;5177548;27;20049;-71
2023/09/20 16:43:45;;;;;;;11.63;5.15;;;;;;;;;;5193059;27;20018;-71
2023/09/20 16:46:30;;;;;;;14.45;5.22;;;;;;;;;;5192432;27;20097;-72
2023/09/20 16:49:16;;;;;;;9.98;4.72;;;;;;;;;;5193645;27;20040;-74
2023/09/20 16:52:03;;;;;;;15.18;5.38;;;;;;;;;;5178192;27;20047;-73
2023/09/20 16:54:49;;;;;;;14.95;6.00;;;;;;;;;;5171080;27;20085;-73
2023/09/20 16:57:35;;;;;;;12.82;5.75;;;;;;;;;;5189971;27;20037;-71
2023/09/20 17:00:23;;;;;;;14.25;5.72;;;;;;;;;;5188764;27;20082;-73